This is the latest recevied weather packets stored in our database for station/object KJ4EWA. If no packets are shown the sender has not sent any weather packets the latest 10 day(s).
| Time | Temp. | Humidity | Pressure | Rain* | Wind** | Luminosity | Snow |
|---|---|---|---|---|---|---|---|
| 1777913938 | 25° C | 47% | 1020.8 hPa | 0 mm | - | 668 W/m² | - |
| 1777913635 | 25.56° C | 46% | 1020.6 hPa | 0 mm | - | 613 W/m² | - |
| 1777913332 | 25.56° C | 46% | 1020.6 hPa | 0 mm | - | 705 W/m² | - |
| 1777913029 | 25° C | 45% | 1020.6 hPa | 0 mm | - | 758 W/m² | - |
| 1777912724 | 26.11° C | 51% | 1020.8 hPa | 0 mm | - | 695 W/m² | - |
| 1777912421 | 25.56° C | 47% | 1021 hPa | 0 mm | - | 695 W/m² | - |
| 1777912117 | 25.56° C | 45% | 1020.8 hPa | 0 mm | - | 702 W/m² | - |
| 1777911813 | 25.56° C | 48% | 1021 hPa | 0 mm | - | 714 W/m² | - |
| 1777911510 | 25.56° C | 47% | 1021.1 hPa | 0 mm | - | 723 W/m² | - |
| 1777911207 | 26.11° C | 54% | 1021 hPa | 0 mm | - | 740 W/m² | - |
| 1777910904 | 26.11° C | 49% | 1021 hPa | 0 mm | - | 741 W/m² | - |
| 1777910601 | 25.56° C | 50% | 1021.1 hPa | 0 mm | - | 552 W/m² | - |
| 1777910298 | 25.56° C | 49% | 1021.4 hPa | 0 mm | - | 502 W/m² | - |
| 1777909994 | 25° C | 49% | 1021.1 hPa | 0 mm | - | 683 W/m² | - |
| 1777909692 | 24.44° C | 47% | 1021.4 hPa | 0 mm | - | 634 W/m² | - |
| 1777909389 | 25° C | 54% | 1021.5 hPa | 0 mm | - | 363 W/m² | - |
| 1777909087 | 24.44° C | 48% | 1021.4 hPa | 0 mm | - | 481 W/m² | - |
| 1777908784 | 24.44° C | 46% | 1021.4 hPa | 0 mm | - | 699 W/m² | - |
| 1777908481 | 24.44° C | 53% | 1021.5 hPa | 0 mm | - | 692 W/m² | - |
| 1777908177 | 23.89° C | 48% | 1021.6 hPa | 0 mm | - | 685 W/m² | - |
| 1777907874 | 23.89° C | 49% | 1021.6 hPa | 0 mm | - | 659 W/m² | - |
| 1777907569 | 24.44° C | 49% | 1021.7 hPa | 0 mm | - | 586 W/m² | - |
| 1777907265 | 24.44° C | 52% | 1021.5 hPa | 0 mm | - | 710 W/m² | - |
| 1777906962 | 23.89° C | 54% | 1021.3 hPa | 0 mm | - | 641 W/m² | - |
| 1777906660 | 23.33° C | 52% | 1021.8 hPa | 0 mm | - | 661 W/m² | - |
* Rain latest hour (hover to see other rain measurements)
** Current wind speed in m/s (hover to see current wind gust speed)